Time;durP1;ratioP1;P1;durP2;ratioP2;P2;SDS_P1;SDS_P2;PMS_P1;PMS_P2;Temp;Humidity;BMP_temperature;BMP_pressure;BME280_temperature;BME280_humidity;BME280_pressure;Samples;Min_cycle;Max_cycle;Signal;HPM_P1;HPM_P2
2023/03/24 00:00:24;;;;;;;8.10;4.18;;;11.60;99.90;;;;;;5054606;28;20055;-65
2023/03/24 00:02:51;;;;;;;8.27;3.95;;;11.80;99.90;;;;;;5072519;28;20510;-65
2023/03/24 00:05:22;;;;;;;7.65;4.00;;;11.60;99.90;;;;;;5072724;28;20060;-65
2023/03/24 00:07:51;;;;;;;8.13;4.00;;;11.70;99.90;;;;;;5070863;28;20468;-65
2023/03/24 00:10:19;;;;;;;10.15;4.65;;;11.70;99.90;;;;;;5070422;28;20047;-65
2023/03/24 00:12:46;;;;;;;9.68;4.25;;;11.60;99.90;;;;;;5066659;28;20048;-65
2023/03/24 00:15:15;;;;;;;6.72;4.05;;;11.70;99.90;;;;;;5072095;28;20048;-65
2023/03/24 00:17:42;;;;;;;8.15;4.30;;;11.60;99.90;;;;;;5071276;28;20423;-65
2023/03/24 00:20:15;;;;;;;7.05;3.83;;;11.60;99.90;;;;;;5070717;28;20086;-65
2023/03/24 00:22:55;;;;;;;6.88;4.28;;;11.60;99.90;;;;;;5072251;28;20048;-65
2023/03/24 00:25:27;;;;;;;8.13;3.58;;;11.70;99.90;;;;;;5071517;28;20053;-65
2023/03/24 00:28:01;;;;;;;7.65;3.35;;;11.60;99.90;;;;;;5072224;28;20044;-65
2023/03/24 00:30:33;;;;;;;9.05;4.65;;;11.60;99.90;;;;;;5071535;28;20426;-66
2023/03/24 00:33:06;;;;;;;7.65;3.78;;;11.60;99.90;;;;;;5071845;28;20441;-65
2023/03/24 00:35:33;;;;;;;8.45;4.18;;;11.70;99.90;;;;;;5072153;28;20456;-65
2023/03/24 00:37:59;;;;;;;5.55;3.85;;;11.70;99.90;;;;;;5071543;28;20053;-65
2023/03/24 00:40:26;;;;;;;6.57;4.78;;;11.60;99.90;;;;;;5071059;28;20349;-66
2023/03/24 00:42:53;;;;;;;5.75;3.65;;;11.70;99.90;;;;;;5071956;28;20040;-65
2023/03/24 00:45:22;;;;;;;6.30;3.65;;;11.60;99.90;;;;;;5072284;28;20048;-65
2023/03/24 00:47:52;;;;;;;5.50;3.65;;;11.70;99.90;;;;;;5070663;28;20083;-65
2023/03/24 00:50:25;;;;;;;7.00;3.67;;;11.60;99.90;;;;;;5071644;28;20056;-65
2023/03/24 00:52:52;;;;;;;8.15;3.67;;;11.80;99.90;;;;;;5071973;28;20048;-65
2023/03/24 00:55:20;;;;;;;8.38;3.63;;;11.80;99.90;;;;;;5071989;28;20075;-65
2023/03/24 00:57:50;;;;;;;7.95;4.18;;;11.60;99.90;;;;;;5071667;28;20049;-65
2023/03/24 01:00:23;;;;;;;9.63;4.30;;;11.70;99.90;;;;;;5071374;28;20510;-65
2023/03/24 01:02:52;;;;;;;5.50;3.63;;;11.70;99.90;;;;;;5071809;28;20040;-65
2023/03/24 01:05:20;;;;;;;5.68;3.30;;;11.80;99.90;;;;;;5071775;28;20075;-65
2023/03/24 01:07:52;;;;;;;4.80;3.47;;;11.70;99.90;;;;;;5071531;28;20105;-65
2023/03/24 01:10:25;;;;;;;5.70;3.42;;;11.70;99.90;;;;;;5071300;28;20044;-66
2023/03/24 01:12:54;;;;;;;6.95;4.07;;;11.80;99.90;;;;;;5071951;28;20055;-66
2023/03/24 01:15:25;;;;;;;7.00;3.63;;;11.80;99.90;;;;;;5071908;28;20049;-65
2023/03/24 01:17:53;;;;;;;5.20;3.40;;;11.80;99.90;;;;;;5063814;28;20057;-66
2023/03/24 01:20:21;;;;;;;5.80;3.58;;;11.80;99.90;;;;;;5033713;28;20140;-65
2023/03/24 01:22:48;;;;;;;5.43;3.70;;;11.70;99.90;;;;;;5051305;28;20353;-66
2023/03/24 01:25:17;;;;;;;5.57;3.50;;;11.70;99.90;;;;;;5051436;28;20473;-66
2023/03/24 01:27:46;;;;;;;6.40;3.45;;;11.70;99.90;;;;;;5057088;28;20044;-65
2023/03/24 01:30:16;;;;;;;6.60;3.25;;;11.90;99.90;;;;;;5070859;28;20396;-65
2023/03/24 01:32:43;;;;;;;5.45;3.13;;;11.70;99.90;;;;;;5071603;28;20049;-65
2023/03/24 01:35:10;;;;;;;5.20;3.15;;;11.90;99.90;;;;;;5053491;28;20113;-65
2023/03/24 01:37:37;;;;;;;5.97;3.10;;;11.70;99.90;;;;;;5066009;28;20107;-65
2023/03/24 01:40:10;;;;;;;5.60;3.50;;;11.90;99.90;;;;;;5050682;28;20049;-66
2023/03/24 01:42:38;;;;;;;6.63;3.25;;;11.80;99.90;;;;;;5050971;28;20429;-65
2023/03/24 01:45:38;;;;;;;6.15;3.08;;;11.70;99.90;;;;;;5051183;28;20394;-65
2023/03/24 01:48:08;;;;;;;4.05;3.05;;;12.00;99.90;;;;;;5059213;28;20464;-66
2023/03/24 01:50:41;;;;;;;5.18;3.25;;;11.80;99.90;;;;;;5070821;28;20044;-66
2023/03/24 01:53:09;;;;;;;5.60;4.18;;;11.90;99.90;;;;;;5056681;28;20411;-66
2023/03/24 01:55:36;;;;;;;5.53;3.60;;;12.00;99.90;;;;;;5075066;28;20048;-65
2023/03/24 01:58:04;;;;;;;4.80;3.70;;;12.00;99.90;;;;;;5066322;28;20045;-65
2023/03/24 02:00:30;;;;;;;4.70;3.15;;;12.00;99.90;;;;;;5054493;28;20047;-65
2023/03/24 02:03:02;;;;;;;4.97;3.55;;;12.00;99.90;;;;;;5054812;28;20045;-65
2023/03/24 02:05:32;;;;;;;4.80;3.55;;;12.10;99.90;;;;;;5056882;28;20472;-65
2023/03/24 02:08:12;;;;;;;5.28;3.35;;;12.10;99.90;;;;;;5048850;28;20045;-66
2023/03/24 02:10:38;;;;;;;5.00;3.05;;;12.10;99.90;;;;;;5036541;28;20137;-65
2023/03/24 02:13:06;;;;;;;5.45;2.85;;;12.10;99.90;;;;;;5037133;28;20053;-65
2023/03/24 02:15:53;;;;;;;5.45;3.42;;;12.20;99.90;;;;;;5036627;28;20049;-65
2023/03/24 02:18:51;;;;;;;6.05;3.40;;;12.10;99.90;;;;;;5071381;28;20067;-66
2023/03/24 02:21:49;;;;;;;4.03;3.05;;;12.10;99.90;;;;;;5072697;28;20052;-65
2023/03/24 02:24:47;;;;;;;4.35;2.90;;;12.20;99.90;;;;;;5074721;28;20059;-65
2023/03/24 02:27:25;;;;;;;5.47;2.80;;;12.20;99.90;;;;;;5074172;28;20049;-66
2023/03/24 02:30:03;;;;;;;4.47;3.30;;;12.10;99.90;;;;;;5074235;28;20057;-66
2023/03/24 02:32:52;;;;;;;5.50;2.95;;;12.10;99.90;;;;;;5074541;28;20052;-67
2023/03/24 02:35:43;;;;;;;5.55;3.42;;;12.20;99.90;;;;;;5074379;28;20052;-66
2023/03/24 02:38:23;;;;;;;5.30;3.13;;;12.30;99.90;;;;;;5072913;28;20056;-65
2023/03/24 02:41:17;;;;;;;4.88;3.08;;;12.30;99.90;;;;;;5073809;28;20055;-66
2023/03/24 02:44:09;;;;;;;5.57;3.72;;;12.30;99.90;;;;;;5074138;28;20040;-66
2023/03/24 02:46:45;;;;;;;4.88;3.25;;;12.30;99.90;;;;;;5056331;28;20460;-66
2023/03/24 02:49:25;;;;;;;5.57;3.40;;;12.30;99.90;;;;;;5072752;28;20052;-65
2023/03/24 02:52:15;;;;;;;6.07;4.07;;;12.10;99.90;;;;;;5074112;28;20098;-66
2023/03/24 02:54:47;;;;;;;4.65;3.33;;;12.30;99.90;;;;;;5061435;28;20048;-66
2023/03/24 02:57:20;;;;;;;;;;;12.10;99.90;;;;;;5074257;28;20128;-65
2023/03/24 03:00:18;;;;;;;4.55;3.35;;;12.20;99.90;;;;;;5073264;28;19920;-63
2023/03/24 03:02:58;;;;;;;5.47;3.50;;;12.30;99.90;;;;;;5055745;28;20049;-64
2023/03/24 03:05:59;;;;;;;4.43;3.90;;;12.20;99.90;;;;;;5073585;28;20385;-63
2023/03/24 03:08:35;;;;;;;5.13;3.75;;;12.20;99.90;;;;;;5062401;28;20416;-65
2023/03/24 03:11:05;;;;;;;6.03;3.53;;;12.30;99.90;;;;;;5073201;28;20041;-63
2023/03/24 03:13:44;;;;;;;6.60;3.30;;;12.30;99.90;;;;;;5072848;28;20049;-64
2023/03/24 03:16:24;;;;;;;5.22;3.58;;;12.30;99.90;;;;;;5072076;28;20052;-64
2023/03/24 03:19:00;;;;;;;5.15;3.95;;;12.30;99.90;;;;;;5045698;28;20098;-64
2023/03/24 03:21:34;;;;;;;4.88;3.95;;;12.20;99.90;;;;;;5052978;28;20045;-65
2023/03/24 03:24:09;;;;;;;4.60;3.45;;;12.30;99.90;;;;;;5053397;28;20045;-64
2023/03/24 03:26:36;;;;;;;15.10;5.07;;;12.20;99.90;;;;;;5053425;28;20625;-64
2023/03/24 03:29:18;;;;;;;8.88;3.80;;;12.40;99.90;;;;;;5027820;28;20453;-64
2023/03/24 03:31:58;;;;;;;4.57;2.90;;;12.20;99.90;;;;;;5035435;28;20053;-64
2023/03/24 03:34:58;;;;;;;5.95;2.45;;;12.10;99.90;;;;;;5035876;28;20057;-64
2023/03/24 03:37:49;;;;;;;5.90;2.05;;;12.00;99.90;;;;;;5033000;28;20497;-65
2023/03/24 03:40:21;;;;;;;7.72;3.13;;;11.80;99.90;;;;;;5051058;28;20379;-64
2023/03/24 03:42:48;;;;;;;6.80;3.47;;;11.80;99.90;;;;;;5018907;28;20118;-65
2023/03/24 03:45:14;;;;;;;6.97;2.33;;;11.70;99.90;;;;;;5052670;28;20110;-65
2023/03/24 03:47:40;;;;;;;8.32;2.47;;;11.70;99.90;;;;;;5034555;28;20052;-64
2023/03/24 03:50:08;;;;;;;12.18;3.70;;;11.50;99.90;;;;;;5034940;28;20460;-64
2023/03/24 03:52:38;;;;;;;10.85;2.75;;;11.50;99.90;;;;;;5052527;28;20110;-65
2023/03/24 03:55:06;;;;;;;12.20;3.40;;;11.50;99.90;;;;;;5035004;28;20075;-65
2023/03/24 03:57:34;;;;;;;9.38;3.17;;;11.40;99.90;;;;;;5017928;28;20053;-64
2023/03/24 04:00:06;;;;;;;9.80;2.65;;;11.30;99.90;;;;;;5034362;28;20055;-65
2023/03/24 04:02:55;;;;;;;15.10;4.45;;;11.20;99.90;;;;;;5034933;28;20358;-64
2023/03/24 04:05:36;;;;;;;8.63;3.00;;;11.20;99.90;;;;;;5052657;28;20500;-65
2023/03/24 04:08:24;;;;;;;5.88;2.55;;;11.10;99.90;;;;;;5034599;28;20064;-64
2023/03/24 04:11:03;;;;;;;5.20;1.90;;;11.00;99.90;;;;;;5018342;28;20468;-65
2023/03/24 04:14:02;;;;;;;6.65;2.10;;;11.10;99.90;;;;;;5035340;28;20056;-65
2023/03/24 04:16:59;;;;;;;8.25;2.13;;;11.00;99.90;;;;;;5037739;28;20147;-64
2023/03/24 04:19:36;;;;;;;7.38;2.10;;;11.00;99.90;;;;;;5033922;28;20144;-65
2023/03/24 04:22:18;;;;;;;6.68;2.55;;;11.00;99.90;;;;;;5054599;28;20470;-65
2023/03/24 04:24:55;;;;;;;10.68;2.63;;;10.90;99.90;;;;;;5054478;28;20053;-65
2023/03/24 04:28:04;;;;;;;7.50;2.13;;;11.00;99.90;;;;;;5054721;28;20053;-64
2023/03/24 04:30:36;;;;;;;10.52;3.33;;;10.90;99.90;;;;;;5053868;28;20417;-64
2023/03/24 04:33:08;;;;;;;9.48;2.63;;;10.90;99.90;;;;;;5054291;28;20052;-64
2023/03/24 04:35:40;;;;;;;10.00;2.92;;;10.90;99.90;;;;;;5054160;28;20044;-65
2023/03/24 04:38:15;;;;;;;8.35;2.53;;;10.90;99.90;;;;;;5046679;28;20130;-64
2023/03/24 04:40:45;;;;;;;12.68;3.47;;;10.80;99.90;;;;;;5053817;28;20338;-64
2023/03/24 04:43:23;;;;;;;8.65;2.70;;;10.80;99.90;;;;;;5053407;28;20076;-64
2023/03/24 04:45:56;;;;;;;13.40;2.90;;;10.70;99.90;;;;;;5053898;28;20052;-64
2023/03/24 04:48:25;;;;;;;12.65;2.80;;;10.60;99.90;;;;;;5053721;28;20056;-64
2023/03/24 04:51:02;;;;;;;13.45;2.90;;;10.60;99.90;;;;;;5036948;28;20044;-65
2023/03/24 04:53:35;;;;;;;8.50;2.72;;;10.60;99.90;;;;;;5053788;28;20076;-64
2023/03/24 04:56:21;;;;;;;9.70;2.63;;;10.50;99.90;;;;;;5071688;28;20048;-64
2023/03/24 04:58:48;;;;;;;6.47;2.28;;;10.40;99.90;;;;;;5053121;28;20063;-65
2023/03/24 05:01:15;;;;;;;6.78;2.78;;;10.30;99.90;;;;;;5052810;28;20048;-64
2023/03/24 05:03:44;;;;;;;7.75;2.50;;;10.30;99.90;;;;;;5070572;28;20049;-64
2023/03/24 05:06:11;;;;;;;8.05;2.15;;;10.20;99.90;;;;;;5071326;28;20037;-65
2023/03/24 05:08:38;;;;;;;9.38;2.30;;;10.30;99.90;;;;;;5050693;28;20464;-63
2023/03/24 05:11:05;;;;;;;5.82;2.17;;;10.20;99.90;;;;;;5052915;28;20048;-64
2023/03/24 05:13:31;;;;;;;6.93;1.98;;;10.10;99.90;;;;;;5053730;28;20056;-64
2023/03/24 05:15:58;;;;;;;8.75;2.88;;;10.10;99.90;;;;;;5049933;28;20458;-65
2023/03/24 05:18:24;;;;;;;7.88;2.10;;;10.00;99.90;;;;;;5076607;28;20059;-65
2023/03/24 05:20:50;;;;;;;5.88;1.95;;;10.10;99.90;;;;;;5078019;28;20052;-64
2023/03/24 05:23:22;;;;;;;6.60;2.13;;;10.00;99.90;;;;;;5071811;28;20044;-64
2023/03/24 05:25:49;;;;;;;;;;;10.00;99.90;;;;;;5070778;28;20055;-65
2023/03/24 05:28:15;;;;;;;9.68;2.25;;;9.90;99.90;;;;;;5073975;28;19932;-65
2023/03/24 05:30:41;;;;;;;5.57;1.75;;;9.80;99.90;;;;;;5073872;28;20045;-64
2023/03/24 05:33:08;;;;;;;6.05;2.50;;;9.90;99.90;;;;;;5074661;28;20385;-64
2023/03/24 05:35:44;;;;;;;9.95;2.40;;;9.90;99.90;;;;;;5074227;28;20052;-64
2023/03/24 05:38:11;;;;;;;8.07;3.08;;;9.80;99.90;;;;;;5062056;28;20044;-64
2023/03/24 05:40:37;;;;;;;8.90;2.35;;;9.80;99.90;;;;;;5053724;28;20056;-64
2023/03/24 05:43:03;;;;;;;8.27;1.95;;;9.90;99.90;;;;;;5063906;28;20052;-64
2023/03/24 05:45:29;;;;;;;10.80;2.72;;;9.90;99.90;;;;;;5073971;28;20409;-64
2023/03/24 05:47:56;;;;;;;8.02;2.30;;;9.90;99.90;;;;;;5073142;28;20072;-65
2023/03/24 05:50:26;;;;;;;5.57;2.13;;;9.90;99.90;;;;;;5074035;28;20338;-65
2023/03/24 05:52:52;;;;;;;7.32;2.22;;;9.80;99.90;;;;;;5066361;28;20067;-64
2023/03/24 05:55:18;;;;;;;8.18;2.47;;;9.80;99.90;;;;;;5067940;28;20428;-65
2023/03/24 05:57:45;;;;;;;6.45;2.20;;;9.80;99.90;;;;;;5074020;28;20044;-64
2023/03/24 06:00:15;;;;;;;6.53;1.80;;;9.90;99.90;;;;;;5073017;28;20465;-65
2023/03/24 06:02:44;;;;;;;9.43;2.10;;;9.80;99.90;;;;;;5073513;28;20071;-65
2023/03/24 06:05:11;;;;;;;7.07;2.15;;;9.80;99.90;;;;;;5073623;28;20056;-65
2023/03/24 06:07:39;;;;;;;7.93;2.60;;;9.80;99.90;;;;;;5073563;28;20368;-65
2023/03/24 06:10:10;;;;;;;5.90;2.20;;;10.00;99.90;;;;;;5056946;28;20311;-65
2023/03/24 06:12:37;;;;;;;8.82;2.30;;;10.00;99.90;;;;;;5040210;28;20048;-65
2023/03/24 06:15:10;;;;;;;9.05;2.50;;;10.00;99.90;;;;;;5060202;28;20052;-64
2023/03/24 06:17:38;;;;;;;8.70;2.80;;;10.10;99.90;;;;;;5072891;28;20388;-64
2023/03/24 06:20:12;;;;;;;8.30;2.30;;;10.10;99.90;;;;;;5056257;28;20055;-64
2023/03/24 06:22:39;;;;;;;8.60;2.50;;;10.10;99.90;;;;;;5061264;28;20474;-65
2023/03/24 06:25:08;;;;;;;11.43;2.92;;;10.10;99.90;;;;;;5073375;28;20445;-65
2023/03/24 06:27:34;;;;;;;11.52;3.63;;;10.10;99.90;;;;;;5073334;28;20049;-63
2023/03/24 06:30:03;;;;;;;8.25;2.40;;;10.10;99.90;;;;;;5071775;28;20071;-62
2023/03/24 06:32:30;;;;;;;7.38;2.45;;;10.20;99.90;;;;;;5072592;28;20049;-65
2023/03/24 06:34:56;;;;;;;8.70;2.15;;;10.20;99.90;;;;;;5074265;28;20532;-65
2023/03/24 06:37:22;;;;;;;11.55;2.75;;;10.30;99.90;;;;;;5072668;28;20763;-65
2023/03/24 06:39:50;;;;;;;10.85;2.60;;;10.20;99.90;;;;;;5068350;28;20053;-64
2023/03/24 06:42:17;;;;;;;9.93;2.38;;;10.30;99.90;;;;;;5056435;28;20452;-65
2023/03/24 06:44:43;;;;;;;11.02;2.85;;;10.30;99.90;;;;;;5074368;28;20101;-64
2023/03/24 06:47:10;;;;;;;12.43;3.17;;;10.40;99.90;;;;;;5074304;28;20102;-65
2023/03/24 06:49:36;;;;;;;11.95;2.92;;;10.30;99.90;;;;;;5073169;28;20044;-65
2023/03/24 06:52:04;;;;;;;14.93;2.92;;;10.40;99.90;;;;;;5074644;28;20045;-65
2023/03/24 06:54:30;;;;;;;13.88;2.85;;;10.40;99.90;;;;;;5074175;28;20469;-64
2023/03/24 06:56:56;;;;;;;11.88;3.00;;;10.50;99.90;;;;;;5074092;28;20049;-65
2023/03/24 06:59:23;;;;;;;12.32;3.17;;;10.50;99.90;;;;;;5072551;28;20049;-65
2023/03/24 07:01:51;;;;;;;11.95;2.85;;;10.60;99.90;;;;;;5073850;28;20052;-65
2023/03/24 07:04:24;;;;;;;13.63;2.80;;;10.60;99.90;;;;;;5073689;28;20059;-64
2023/03/24 07:06:51;;;;;;;15.10;3.15;;;10.60;99.90;;;;;;5073667;28;20056;-64
2023/03/24 07:09:18;;;;;;;17.27;3.10;;;10.60;99.90;;;;;;5072594;28;20052;-65
2023/03/24 07:11:45;;;;;;;15.32;3.20;;;10.60;99.90;;;;;;5073760;28;20044;-65
2023/03/24 07:14:11;;;;;;;19.55;3.88;;;10.60;99.90;;;;;;5073680;28;20060;-65
2023/03/24 07:16:41;;;;;;;13.40;3.17;;;10.70;99.90;;;;;;5069448;28;20619;-65
2023/03/24 07:19:07;;;;;;;15.63;3.35;;;10.70;99.90;;;;;;5035061;28;20203;-65
2023/03/24 07:21:33;;;;;;;18.73;4.40;;;10.60;99.90;;;;;;5035993;28;20045;-65
2023/03/24 07:24:06;;;;;;;19.00;3.50;;;10.60;99.90;;;;;;5035438;28;20102;-65
2023/03/24 07:26:32;;;;;;;16.90;3.17;;;10.70;99.90;;;;;;5035645;28;20120;-65
2023/03/24 07:28:59;;;;;;;12.98;3.63;;;10.70;99.90;;;;;;5034445;28;20057;-65
2023/03/24 07:31:25;;;;;;;20.20;5.28;;;10.70;99.90;;;;;;5035794;28;20044;-65
2023/03/24 07:33:51;;;;;;;15.63;3.25;;;10.70;99.90;;;;;;5036447;28;20060;-65
2023/03/24 07:36:17;;;;;;;16.35;3.55;;;10.80;99.90;;;;;;5035408;28;20053;-65
2023/03/24 07:38:44;;;;;;;18.20;3.45;;;10.80;99.90;;;;;;5052476;28;20110;-64
2023/03/24 07:41:17;;;;;;;18.80;3.33;;;10.80;99.90;;;;;;5035257;28;20045;-65
2023/03/24 07:43:45;;;;;;;21.83;4.03;;;10.90;99.90;;;;;;5035007;28;20045;-65
2023/03/24 07:46:11;;;;;;;14.43;3.63;;;10.90;99.90;;;;;;5034940;28;20481;-64
2023/03/24 07:48:37;;;;;;;17.13;3.85;;;10.90;99.90;;;;;;5035039;28;20079;-66
2023/03/24 07:51:03;;;;;;;15.70;3.35;;;11.00;99.90;;;;;;5034512;28;20048;-65
2023/03/24 07:53:31;;;;;;;18.98;4.45;;;11.00;99.90;;;;;;5052481;28;20373;-66
2023/03/24 07:55:58;;;;;;;17.77;3.63;;;11.10;99.90;;;;;;5034984;28;20424;-66
2023/03/24 07:58:24;;;;;;;14.45;3.17;;;11.10;99.90;;;;;;5034587;28;20053;-66
2023/03/24 08:00:51;;;;;;;15.82;3.47;;;11.20;99.90;;;;;;5052293;28;20110;-66
2023/03/24 08:03:17;;;;;;;15.98;3.15;;;11.30;99.90;;;;;;5035022;28;20492;-66
2023/03/24 08:05:44;;;;;;;15.05;2.92;;;11.30;99.90;;;;;;5034885;28;20064;-65
2023/03/24 08:08:11;;;;;;;19.42;3.42;;;11.30;99.90;;;;;;5018286;28;20068;-66
2023/03/24 08:10:37;;;;;;;13.20;3.00;;;11.40;99.90;;;;;;5034425;28;20052;-65
2023/03/24 08:13:04;;;;;;;12.00;2.90;;;11.60;99.90;;;;;;5034806;28;20064;-66
2023/03/24 08:15:30;;;;;;;16.55;3.70;;;11.70;99.90;;;;;;5034796;28;20049;-66
2023/03/24 08:18:03;;;;;;;14.40;3.50;;;11.70;99.90;;;;;;5049867;28;20052;-66
2023/03/24 08:20:30;;;;;;;15.52;3.10;;;11.70;99.90;;;;;;5071879;28;20071;-66
2023/03/24 08:22:56;;;;;;;14.07;2.88;;;11.80;99.90;;;;;;5054654;28;20052;-65
2023/03/24 08:25:24;;;;;;;15.13;4.50;;;11.70;99.90;;;;;;5054556;28;20346;-65
2023/03/24 08:27:51;;;;;;;21.13;4.15;;;11.70;99.90;;;;;;5055160;28;20045;-66
2023/03/24 08:30:20;;;;;;;12.88;3.65;;;11.80;99.90;;;;;;5071710;28;20048;-66
2023/03/24 08:32:53;;;;;;;15.15;3.72;;;11.70;99.90;;;;;;5072003;28;20384;-65
2023/03/24 08:35:23;;;;;;;13.45;3.22;;;11.70;99.90;;;;;;5071953;28;20055;-66
2023/03/24 08:37:50;;;;;;;15.88;3.55;;;11.80;99.90;;;;;;5070726;28;20525;-66
2023/03/24 08:40:22;;;;;;;18.42;3.83;;;11.90;99.90;;;;;;5070741;28;20051;-66
2023/03/24 08:42:50;;;;;;;;;;;12.00;99.90;;;;;;5070762;28;20449;-65
2023/03/24 08:45:19;;;;;;;19.02;4.78;;;12.00;99.90;;;;;;5067580;28;19943;-65
2023/03/24 08:47:48;;;;;;;17.77;4.80;;;12.00;99.90;;;;;;5070562;28;20063;-64
2023/03/24 08:50:14;;;;;;;10.50;3.40;;;12.10;99.90;;;;;;5070347;28;20048;-64
2023/03/24 08:52:40;;;;;;;15.25;4.13;;;12.10;99.90;;;;;;5071846;28;20075;-64
2023/03/24 08:55:09;;;;;;;15.43;4.22;;;12.30;99.90;;;;;;5071855;28;20053;-64
2023/03/24 08:57:35;;;;;;;13.30;2.78;;;12.40;99.90;;;;;;5070660;28;20063;-64
2023/03/24 09:00:14;;;;;;;15.45;3.80;;;12.40;99.90;;;;;;5069777;28;20140;-64
2023/03/24 09:02:42;;;;;;;9.32;3.05;;;12.40;99.90;;;;;;5071655;28;20106;-64
2023/03/24 09:05:20;;;;;;;10.10;2.60;;;12.30;99.90;;;;;;5071739;28;20044;-64
2023/03/24 09:07:53;;;;;;;15.38;3.00;;;12.30;99.90;;;;;;5053516;28;20438;-64
2023/03/24 09:10:21;;;;;;;17.10;4.60;;;12.20;99.90;;;;;;5070109;28;20055;-64
2023/03/24 09:12:48;;;;;;;11.15;4.13;;;12.10;99.90;;;;;;5053957;28;20066;-64
2023/03/24 09:15:14;;;;;;;10.38;3.15;;;12.10;99.90;;;;;;5070505;28;20063;-64
2023/03/24 09:17:41;;;;;;;14.90;3.65;;;12.00;99.90;;;;;;5069581;28;20056;-64
2023/03/24 09:20:11;;;;;;;13.05;3.63;;;12.10;99.90;;;;;;5070145;28;20056;-64
2023/03/24 09:22:43;;;;;;;13.30;3.63;;;12.30;99.90;;;;;;5070574;28;20060;-65
2023/03/24 09:25:13;;;;;;;13.10;3.17;;;12.50;99.90;;;;;;5071676;28;20048;-64
2023/03/24 09:27:40;;;;;;;10.60;3.85;;;12.60;99.90;;;;;;5071318;28;20056;-64
2023/03/24 09:30:08;;;;;;;16.00;3.63;;;12.70;99.90;;;;;;5070971;28;20376;-64
2023/03/24 09:32:36;;;;;;;12.73;3.22;;;12.80;99.90;;;;;;5070894;28;20102;-64
2023/03/24 09:35:04;;;;;;;17.95;3.15;;;12.60;99.90;;;;;;5070384;28;20473;-64
2023/03/24 09:37:34;;;;;;;14.80;4.15;;;12.70;99.90;;;;;;5070396;28;20036;-64
2023/03/24 09:40:01;;;;;;;18.40;3.10;;;12.80;99.90;;;;;;5049863;28;20045;-64
2023/03/24 09:42:37;;;;;;;12.48;2.88;;;12.70;99.90;;;;;;5050350;28;20049;-64
2023/03/24 09:45:11;;;;;;;11.75;3.63;;;12.80;99.90;;;;;;5051225;28;20049;-64
2023/03/24 09:48:10;;;;;;;12.10;3.10;;;12.80;99.90;;;;;;5051882;28;20053;-64
2023/03/24 09:50:44;;;;;;;15.43;3.33;;;12.80;99.90;;;;;;5070750;28;20036;-64
2023/03/24 09:53:39;;;;;;;14.32;3.67;;;12.90;99.90;;;;;;5053838;28;20075;-64
2023/03/24 09:56:13;;;;;;;18.27;4.00;;;13.00;99.90;;;;;;5071395;28;20465;-63
2023/03/24 09:58:46;;;;;;;15.32;3.85;;;12.90;99.90;;;;;;5053160;28;20499;-65
2023/03/24 10:01:23;;;;;;;12.88;2.95;;;12.90;99.90;;;;;;5070186;28;20071;-64
2023/03/24 10:03:50;;;;;;;14.38;3.17;;;12.80;99.90;;;;;;5071625;28;20117;-64
2023/03/24 10:06:38;;;;;;;13.18;3.42;;;12.90;99.90;;;;;;5069977;28;20041;-64
2023/03/24 10:09:21;;;;;;;14.90;3.55;;;13.00;99.90;;;;;;5070595;28;20040;-64
2023/03/24 10:12:14;;;;;;;14.65;3.30;;;13.00;99.90;;;;;;5071259;28;20044;-64
2023/03/24 10:15:11;;;;;;;12.63;3.10;;;13.00;99.90;;;;;;5074676;28;20060;-63
2023/03/24 10:17:51;;;;;;;14.82;2.92;;;13.10;99.90;;;;;;5074195;28;20051;-64
2023/03/24 10:20:29;;;;;;;10.43;2.70;;;13.10;99.90;;;;;;5073054;28;20048;-65
2023/03/24 10:23:22;;;;;;;13.10;2.90;;;13.10;99.90;;;;;;5074686;28;20049;-64
2023/03/24 10:26:23;;;;;;;9.65;3.30;;;13.10;99.90;;;;;;5074393;28;20480;-65
2023/03/24 10:29:10;;;;;;;10.50;3.28;;;13.20;99.90;;;;;;5073698;28;20407;-64
2023/03/24 10:31:39;;;;;;;10.38;3.42;;;13.30;99.90;;;;;;5074325;28;20518;-63
2023/03/24 10:34:11;;;;;;;17.38;3.65;;;13.40;99.90;;;;;;5074440;28;20044;-64
2023/03/24 10:36:38;;;;;;;15.55;3.30;;;13.30;99.90;;;;;;5074469;28;20110;-63
2023/03/24 10:39:04;;;;;;;11.32;3.17;;;13.20;99.90;;;;;;5073480;28;20044;-63
2023/03/24 10:41:31;;;;;;;11.05;3.40;;;13.30;99.90;;;;;;5073270;28;20056;-64
2023/03/24 10:43:59;;;;;;;15.60;3.28;;;13.40;99.90;;;;;;5074359;28;20056;-65
2023/03/24 10:46:32;;;;;;;13.38;3.47;;;13.40;99.90;;;;;;5074047;28;20060;-64
2023/03/24 10:49:08;;;;;;;12.70;2.92;;;13.40;99.90;;;;;;5073302;28;20052;-65
2023/03/24 10:51:35;;;;;;;9.85;3.00;;;13.40;99.90;;;;;;5074259;28;20044;-64
2023/03/24 10:54:15;;;;;;;10.90;2.67;;;13.30;99.90;;;;;;5074220;28;20056;-64
2023/03/24 10:56:44;;;;;;;12.30;2.80;;;13.20;99.90;;;;;;5074193;28;20056;-65
2023/03/24 10:59:32;;;;;;;9.15;2.80;;;13.20;99.90;;;;;;5072145;28;20067;-64
2023/03/24 11:02:07;;;;;;;11.38;3.45;;;13.30;99.90;;;;;;5106937;28;20381;-64
2023/03/24 11:04:39;;;;;;;13.00;2.78;;;13.30;99.90;;;;;;5073882;28;20062;-64
2023/03/24 11:07:14;;;;;;;9.27;2.70;;;13.40;99.90;;;;;;5073889;28;20056;-65
2023/03/24 11:09:43;;;;;;;11.82;2.92;;;13.60;99.90;;;;;;5071945;28;20059;-64
2023/03/24 11:12:25;;;;;;;9.05;2.60;;;13.60;99.90;;;;;;5073731;28;20102;-64
2023/03/24 11:15:02;;;;;;;9.23;3.13;;;13.60;99.90;;;;;;5073948;28;20110;-65
2023/03/24 11:17:28;;;;;;;9.50;3.08;;;13.60;99.90;;;;;;5063573;28;20045;-64
2023/03/24 11:19:56;;;;;;;13.10;3.95;;;13.60;99.90;;;;;;5052537;28;20044;-64
2023/03/24 11:22:25;;;;;;;12.60;2.80;;;13.50;99.90;;;;;;5053869;28;20049;-64
2023/03/24 11:24:55;;;;;;;10.52;3.03;;;13.40;99.90;;;;;;5053407;28;20041;-64
2023/03/24 11:27:22;;;;;;;12.90;2.30;;;13.40;99.90;;;;;;5053638;28;20049;-64
2023/03/24 11:29:53;;;;;;;16.63;2.90;;;13.40;99.90;;;;;;5034194;28;20068;-65
2023/03/24 11:32:26;;;;;;;8.15;2.33;;;13.50;99.90;;;;;;5053320;28;20061;-64
2023/03/24 11:35:06;;;;;;;5.85;2.50;;;13.50;99.90;;;;;;5052788;28;20453;-65
2023/03/24 11:37:34;;;;;;;11.50;2.95;;;13.60;99.90;;;;;;5053111;28;20099;-64
2023/03/24 11:40:16;;;;;;;9.32;2.50;;;13.60;99.90;;;;;;5052411;28;20049;-64
2023/03/24 11:42:56;;;;;;;9.23;2.20;;;13.70;99.90;;;;;;5053277;28;20049;-64
2023/03/24 11:45:39;;;;;;;8.95;2.25;;;13.70;99.90;;;;;;5019122;28;20057;-65
2023/03/24 11:48:51;;;;;;;10.93;2.80;;;13.60;99.90;;;;;;5052280;28;20090;-64
2023/03/24 11:51:32;;;;;;;11.55;3.30;;;13.50;99.90;;;;;;5036039;28;20426;-65
2023/03/24 11:54:02;;;;;;;8.13;2.60;;;13.40;99.90;;;;;;5053058;28;20145;-64
2023/03/24 11:56:41;;;;;;;11.15;3.10;;;13.40;99.90;;;;;;5053225;28;20048;-64
2023/03/24 11:59:51;;;;;;;10.00;2.80;;;13.60;99.90;;;;;;5052191;28;20044;-64
2023/03/24 12:03:04;;;;;;;9.88;2.97;;;13.80;99.90;;;;;;4987846;28;20389;-65
2023/03/24 12:05:41;;;;;;;6.18;2.33;;;13.80;99.90;;;;;;5052556;28;20516;-64
2023/03/24 12:08:33;;;;;;;12.98;3.40;;;13.80;99.90;;;;;;5048900;28;20115;-63
2023/03/24 12:11:24;;;;;;;11.85;2.42;;;13.80;99.90;;;;;;5052670;28;20049;-64
2023/03/24 12:13:51;;;;;;;16.85;2.95;;;13.70;99.90;;;;;;5052508;28;20048;-64
2023/03/24 12:16:42;;;;;;;7.68;2.30;;;13.60;99.90;;;;;;5052429;28;20053;-65
2023/03/24 12:19:32;;;;;;;13.70;2.92;;;13.60;99.90;;;;;;5048746;28;20103;-64
2023/03/24 12:22:07;;;;;;;17.00;3.88;;;13.50;99.90;;;;;;5052456;28;20053;-65
2023/03/24 12:24:54;;;;;;;13.57;2.95;;;13.50;99.90;;;;;;5051902;28;20543;-65
2023/03/24 12:27:51;;;;;;;13.32;3.65;;;13.50;99.90;;;;;;5052588;28;20041;-65
2023/03/24 12:30:32;;;;;;;13.13;3.10;;;13.60;99.90;;;;;;5016765;28;20082;-65
2023/03/24 12:33:06;;;;;;;12.95;4.50;;;13.80;99.90;;;;;;5051616;28;20368;-64
2023/03/24 12:35:54;;;;;;;11.82;2.90;;;13.80;99.90;;;;;;5049383;28;20136;-64
2023/03/24 12:38:45;;;;;;;15.00;3.38;;;13.70;99.90;;;;;;5032599;28;20044;-65
2023/03/24 12:41:17;;;;;;;15.40;3.03;;;13.70;99.90;;;;;;5034280;28;20053;-65
2023/03/24 12:44:11;;;;;;;13.70;4.00;;;13.80;99.90;;;;;;5052093;28;20380;-64
2023/03/24 12:47:09;;;;;;;14.07;3.15;;;13.80;99.90;;;;;;5051959;28;20491;-65
2023/03/24 12:49:59;;;;;;;10.85;2.78;;;14.00;99.90;;;;;;5051030;28;20049;-64
2023/03/24 12:52:51;;;;;;;12.32;2.90;;;14.00;99.90;;;;;;5048351;28;20140;-65
2023/03/24 12:55:24;;;;;;;10.82;3.08;;;13.90;99.90;;;;;;5044969;28;20072;-65
2023/03/24 12:57:58;;;;;;;10.57;2.63;;;13.90;99.90;;;;;;5043640;28;20423;-64
2023/03/24 13:00:38;;;;;;;14.52;3.20;;;13.90;99.90;;;;;;5030745;28;20057;-65
2023/03/24 13:03:20;;;;;;;10.85;2.83;;;13.90;99.90;;;;;;5049309;28;20057;-64
2023/03/24 13:05:53;;;;;;;14.68;3.25;;;14.00;99.90;;;;;;5049775;28;20049;-64
2023/03/24 13:08:28;;;;;;;12.40;2.65;;;14.20;99.90;;;;;;5031234;28;20045;-65
2023/03/24 13:11:04;;;;;;;10.45;2.50;;;14.20;99.90;;;;;;5033734;28;20131;-65
2023/03/24 13:13:36;;;;;;;9.60;2.85;;;14.10;99.90;;;;;;5033071;28;20045;-65
2023/03/24 13:16:11;;;;;;;13.88;2.97;;;14.10;99.90;;;;;;5031478;28;20060;-65